Bybee, Tennessee
Current Conditions -  °F | °C
As of 1:15 AM on Sunday 21 Dec 2014 (Local Time) from KMOR Reporting Station
Overcast Overcast  
Wind Chill: 37°   Ceiling: 4100
Heat Index: 37°   Visibility: 9mi
Dew Point: 37°   Wind: 0mph
Humidity: 100%   Direction: NA
Pressure: 30.23"   Gusts: NA
Location:  36.05°N, 83.18°W
Report Text: KMOR 210615Z AUTO 00000KT 9SM OVC041 03/03 A3023 RMK
Loading
Personal Weather Stations






























Interactive Weather Map New forecast layout! Learn more

10-Day Weather Forecast

Advertisements
Track Severe Weather on mobile